createdAt,value
2022-11-15T00:02:08.796Z,100054.94
2022-11-15T00:04:29.276Z,100051.50
2022-11-15T00:06:50.079Z,100060.41
2022-11-15T00:09:10.881Z,100059.47
2022-11-15T00:11:32.036Z,100058.84
2022-11-15T00:13:55.891Z,100063.34
2022-11-15T00:16:16.788Z,100062.47
2022-11-15T00:18:38.513Z,100057.13
2022-11-15T00:21:06.122Z,100053.78
2022-11-15T00:23:26.718Z,100054.84
2022-11-15T00:26:00.465Z,100052.94
2022-11-15T00:28:21.109Z,100041.31
2022-11-15T00:30:44.097Z,100042.25
2022-11-15T00:33:06.330Z,100030.44
2022-11-15T00:35:28.352Z,100029.69
2022-11-15T00:37:49.599Z,100030.66
2022-11-15T00:40:11.133Z,100022.53
2022-11-15T00:42:31.573Z,100018.13
2022-11-15T00:44:52.296Z,100023.56
2022-11-15T00:47:12.771Z,100012.13
2022-11-15T00:49:34.092Z,100023.72
2022-11-15T00:51:54.747Z,100018.22
2022-11-15T00:54:15.506Z,100015.44
2022-11-15T00:56:35.873Z,100007.63
2022-11-15T00:58:56.119Z,100012.00
2022-11-15T01:01:16.596Z,100004.91
2022-11-15T01:03:39.007Z,100005.88
2022-11-15T01:06:01.297Z,100001.41
2022-11-15T01:08:21.908Z,100000.44
2022-11-15T01:10:43.743Z,99999.75
2022-11-15T01:13:04.370Z,100001.63
2022-11-15T01:15:24.642Z,100000.91
2022-11-15T01:17:45.178Z,99996.53
2022-11-15T01:21:09.647Z,99988.63
2022-11-15T01:23:30.358Z,99979.41
2022-11-15T01:25:51.098Z,99986.56
2022-11-15T01:28:12.016Z,99981.09
2022-11-15T01:30:33.052Z,99984.81
2022-11-15T01:32:53.254Z,99990.22
2022-11-15T01:35:14.109Z,99992.00
2022-11-15T01:37:34.738Z,99987.50
2022-11-15T01:39:55.305Z,99984.91
2022-11-15T01:42:16.126Z,99977.78
2022-11-15T01:44:44.306Z,99984.06
2022-11-15T01:47:10.237Z,99977.84
2022-11-15T01:49:34.839Z,99978.72
2022-11-15T01:51:56.246Z,99975.19
2022-11-15T01:58:11.397Z,99977.34
2022-11-15T02:00:33.044Z,99972.16
2022-11-15T02:02:54.424Z,99965.91
2022-11-15T02:05:15.058Z,99968.50
2022-11-15T02:07:37.305Z,99965.72
2022-11-15T02:10:03.947Z,99968.41
2022-11-15T02:12:24.822Z,99964.78
2022-11-15T02:14:49.451Z,99965.03
2022-11-15T02:17:26.058Z,99957.91
2022-11-15T02:19:52.445Z,99956.34
2022-11-15T02:22:21.865Z,99957.22
2022-11-15T02:25:02.628Z,99953.91
2022-11-15T02:27:53.339Z,99948.44
2022-11-15T02:30:27.342Z,99961.09
2022-11-15T02:32:54.188Z,99960.97
2022-11-15T02:35:53.305Z,99964.53
2022-11-15T02:38:31.827Z,99958.38
2022-11-15T02:41:03.556Z,99969.09
2022-11-15T02:43:51.232Z,99963.78
2022-11-15T02:46:59.599Z,99964.78
2022-11-15T02:49:20.888Z,99962.00
2022-11-15T02:51:42.973Z,99959.41
2022-11-15T02:54:03.689Z,99967.50
2022-11-15T02:56:26.765Z,99957.72
2022-11-15T02:59:13.351Z,99964.91
2022-11-15T03:01:57.183Z,99959.84
2022-11-15T03:04:24.838Z,99955.13
2022-11-15T03:06:55.061Z,99953.28
2022-11-15T03:09:44.140Z,99944.41
2022-11-15T03:12:12.996Z,99953.41
2022-11-15T03:14:38.430Z,99947.84
2022-11-15T03:17:04.852Z,99951.38
2022-11-15T03:19:35.330Z,99950.31
2022-11-15T03:21:59.175Z,99950.22
2022-11-15T03:24:46.603Z,99952.09
2022-11-15T03:27:11.267Z,99944.94
2022-11-15T03:29:39.177Z,99943.22
2022-11-15T03:32:06.373Z,99945.75
2022-11-15T03:34:39.257Z,99935.03
2022-11-15T03:37:00.317Z,99934.16
2022-11-15T03:39:22.741Z,99934.09
2022-11-15T03:41:52.518Z,99935.84
2022-11-15T03:44:24.594Z,99935.19
2022-11-15T03:46:55.976Z,99932.34
2022-11-15T03:49:23.824Z,99929.00
2022-11-15T03:51:45.021Z,99929.97
2022-11-15T03:54:09.136Z,99925.66
2022-11-15T03:56:29.845Z,99931.97
2022-11-15T03:58:50.672Z,99922.94
2022-11-15T04:01:10.840Z,99929.28
2022-11-15T04:03:31.770Z,99925.75
2022-11-15T04:05:52.567Z,99924.03
2022-11-15T04:08:13.385Z,99924.03
2022-11-15T04:10:33.921Z,99932.25
2022-11-15T04:12:54.883Z,99932.16
2022-11-15T04:15:18.823Z,99930.44
2022-11-15T04:17:44.405Z,99930.44
2022-11-15T04:20:25.441Z,99934.81
2022-11-15T04:23:04.805Z,99942.81
2022-11-15T04:25:31.079Z,99925.66
2022-11-15T04:27:52.645Z,99929.97
2022-11-15T04:30:13.286Z,99915.56
2022-11-15T04:32:33.993Z,99918.34
2022-11-15T04:34:54.096Z,99921.03
2022-11-15T04:37:16.419Z,99914.09
2022-11-15T04:39:37.201Z,99909.69
2022-11-15T04:41:57.961Z,99913.28
2022-11-15T04:44:18.702Z,99912.44
2022-11-15T04:46:39.426Z,99899.13
2022-11-15T04:49:00.109Z,99909.97
2022-11-15T04:51:20.967Z,99912.81
2022-11-15T04:54:07.771Z,99924.41
2022-11-15T04:56:32.307Z,99916.38
2022-11-15T04:58:54.160Z,99915.50
2022-11-15T05:01:16.204Z,99916.25
2022-11-15T05:03:55.306Z,99922.50
2022-11-15T05:06:16.210Z,99912.50
2022-11-15T05:08:39.733Z,99914.25
2022-11-15T05:11:00.546Z,99901.91
2022-11-15T05:13:21.409Z,99912.63
2022-11-15T05:15:42.182Z,99908.91
2022-11-15T05:18:04.461Z,99917.13
2022-11-15T05:20:25.635Z,99908.22
2022-11-15T05:22:46.254Z,99903.66
2022-11-15T05:25:07.762Z,99906.41
2022-11-15T05:27:28.236Z,99908.22
2022-11-15T05:29:49.027Z,99904.72
2022-11-15T05:32:11.463Z,99906.41
2022-11-15T05:34:32.405Z,99919.13
2022-11-15T05:36:53.090Z,99902.97
2022-11-15T05:39:21.664Z,99898.41
2022-11-15T05:41:56.915Z,99900.41
2022-11-15T05:44:21.283Z,99892.53
2022-11-15T05:46:43.328Z,99903.09
2022-11-15T05:49:07.613Z,99899.91
2022-11-15T05:51:30.368Z,99890.84
2022-11-15T05:53:53.289Z,99900.56
2022-11-15T05:56:14.169Z,99901.44
2022-11-15T05:58:38.193Z,99899.81
2022-11-15T06:00:59.092Z,99905.16
2022-11-15T06:03:26.242Z,99910.34
2022-11-15T06:05:46.912Z,99901.22
2022-11-15T06:08:07.804Z,99908.34
2022-11-15T06:10:28.421Z,99902.97
2022-11-15T06:13:04.405Z,99906.44
2022-11-15T06:15:24.869Z,99901.72
2022-11-15T06:17:45.352Z,99902.75
2022-11-15T06:20:06.285Z,99903.63
2022-11-15T06:22:26.701Z,99904.19
2022-11-15T06:24:47.870Z,99910.22
2022-11-15T06:27:08.306Z,99915.47
2022-11-15T06:29:29.105Z,99911.66
2022-11-15T06:31:49.966Z,99913.16
2022-11-15T06:34:10.660Z,99910.00
2022-11-15T06:36:31.035Z,99902.63
2022-11-15T06:38:54.157Z,99906.66
2022-11-15T06:45:02.411Z,99904.31
2022-11-15T06:47:23.065Z,99894.22
2022-11-15T06:49:44.015Z,99893.94
2022-11-15T06:52:04.915Z,99890.09
2022-11-15T06:54:26.466Z,99889.22
2022-11-15T06:56:47.116Z,99881.72
2022-11-15T06:59:07.531Z,99895.63
2022-11-15T07:01:28.081Z,99890.16
2022-11-15T07:03:51.630Z,99896.81
2022-11-15T07:06:12.344Z,99894.69
2022-11-15T07:08:33.120Z,99884.75
2022-11-15T07:10:54.054Z,99874.41
2022-11-15T07:13:14.758Z,99874.97
2022-11-15T07:15:35.177Z,99879.03
2022-11-15T07:17:55.741Z,99875.19
2022-11-15T07:20:19.927Z,99875.81
2022-11-15T07:22:43.947Z,99878.28
2022-11-15T07:25:04.955Z,99872.47
2022-11-15T07:27:25.822Z,99878.19
2022-11-15T07:29:46.616Z,99883.09
2022-11-15T07:32:07.393Z,99888.97
2022-11-15T07:34:27.758Z,99894.75
2022-11-15T07:36:48.134Z,99895.63
2022-11-15T07:39:09.379Z,99889.81
2022-11-15T07:41:30.978Z,99883.22
2022-11-15T07:43:54.397Z,99881.97
2022-11-15T07:46:16.445Z,99883.41
2022-11-15T07:48:44.086Z,99875.81
2022-11-15T07:51:09.895Z,99877.38
2022-11-15T07:53:34.252Z,99871.06
2022-11-15T07:55:55.083Z,99885.97
2022-11-15T07:58:16.098Z,99872.38
2022-11-15T08:00:37.192Z,99876.56
2022-11-15T08:03:24.221Z,99875.66
2022-11-15T08:05:52.166Z,99872.63
2022-11-15T08:08:13.061Z,99880.19
2022-11-15T08:10:39.378Z,99869.97
2022-11-15T08:13:04.056Z,99868.59
2022-11-15T08:15:24.866Z,99864.69
2022-11-15T08:17:45.431Z,99868.97
2022-11-15T08:20:07.062Z,99861.19
2022-11-15T08:22:27.675Z,99863.34
2022-11-15T08:24:47.847Z,99860.41
2022-11-15T08:27:16.163Z,99854.66
2022-11-15T08:29:37.269Z,99859.09
2022-11-15T08:31:58.282Z,99860.63
2022-11-15T08:34:19.123Z,99861.50
2022-11-15T08:36:46.005Z,99857.00
2022-11-15T08:39:06.777Z,99859.47
2022-11-15T08:41:36.985Z,99863.19
2022-11-15T08:43:58.096Z,99862.63
2022-11-15T08:46:19.483Z,99856.94
2022-11-15T08:48:40.367Z,99853.06
2022-11-15T08:51:01.047Z,99850.22
2022-11-15T08:53:47.474Z,99841.16
2022-11-15T08:56:10.239Z,99840.72
2022-11-15T08:58:30.990Z,99841.38
2022-11-15T09:00:51.882Z,99838.47
2022-11-15T09:03:12.708Z,99822.09
2022-11-15T09:05:36.659Z,99830.84
2022-11-15T09:07:57.545Z,99827.19
2022-11-15T09:10:18.076Z,99827.06
2022-11-15T09:12:39.078Z,99812.44
2022-11-15T09:14:59.889Z,99817.69
2022-11-15T09:17:24.666Z,99825.63
2022-11-15T09:20:10.380Z,99820.00
2022-11-15T09:22:30.799Z,99816.78
2022-11-15T09:24:51.477Z,99821.97
2022-11-15T09:27:13.115Z,99820.88
2022-11-15T09:29:33.665Z,99814.28
2022-11-15T09:31:54.293Z,99809.44
2022-11-15T09:34:14.938Z,99804.66
2022-11-15T09:36:35.981Z,99802.44
2022-11-15T09:38:59.227Z,99801.28
2022-11-15T09:41:42.032Z,99800.19
2022-11-15T09:44:44.962Z,99799.09
2022-11-15T09:47:08.519Z,99788.72
2022-11-15T09:49:31.054Z,99778.34
2022-11-15T09:51:55.411Z,99772.78
2022-11-15T09:54:51.741Z,99771.66
2022-11-15T09:56:33.432Z,99761.91
2022-11-15T09:59:03.971Z,99760.94
2022-11-15T10:01:13.857Z,99759.81
2022-11-15T10:03:43.081Z,99754.25
2022-11-15T10:05:49.031Z,99767.34
2022-11-15T10:08:08.054Z,99765.63
2022-11-15T10:10:42.956Z,99758.13
2022-11-15T10:12:49.266Z,99752.53
2022-11-15T10:15:01.266Z,99750.53
2022-11-15T10:17:40.639Z,99749.59
2022-11-15T10:20:12.900Z,99749.94
2022-11-15T10:22:20.726Z,99743.13
2022-11-15T10:24:29.180Z,99743.81
2022-11-15T10:26:31.363Z,99747.06
2022-11-15T10:28:33.790Z,99738.50
2022-11-15T10:30:42.486Z,99727.72
2022-11-15T10:32:46.284Z,99725.44
2022-11-15T10:34:50.192Z,99721.06
2022-11-15T10:37:00.086Z,99716.19
2022-11-15T10:39:02.141Z,99713.22
2022-11-15T10:41:12.229Z,99720.28
2022-11-15T10:43:16.206Z,99719.13
2022-11-15T10:45:28.485Z,99723.34
2022-11-15T10:47:39.009Z,99715.88
2022-11-15T10:49:56.171Z,99709.59
2022-11-15T10:52:16.183Z,99702.72
2022-11-15T10:54:27.190Z,99699.75
2022-11-15T10:56:29.627Z,99702.53
2022-11-15T10:58:41.371Z,99699.66
2022-11-15T11:00:43.820Z,99691.75
2022-11-15T11:03:08.466Z,99686.31
2022-11-15T11:05:42.151Z,99689.31
2022-11-15T11:11:09.355Z,99680.81
2022-11-15T11:13:30.168Z,99677.19
2022-11-15T11:15:32.443Z,99693.78
2022-11-15T11:17:46.379Z,99682.94
2022-11-15T11:20:01.161Z,99678.25
2022-11-15T11:22:42.960Z,99673.50
2022-11-15T11:25:05.073Z,99666.81
2022-11-15T11:27:34.207Z,99662.16
2022-11-15T11:30:03.274Z,99651.97
2022-11-15T11:32:38.848Z,99649.84
2022-11-15T11:35:42.985Z,99627.38
2022-11-15T11:37:52.546Z,99627.19
2022-11-15T11:40:17.535Z,99624.56
2022-11-15T11:43:02.685Z,99619.53
2022-11-15T11:45:47.320Z,99621.97
2022-11-15T11:48:09.145Z,99620.13
2022-11-15T11:50:24.442Z,99625.13
2022-11-15T11:52:28.538Z,99620.38
2022-11-15T11:54:51.956Z,99614.28
2022-11-15T11:56:55.534Z,99611.78
2022-11-15T11:59:07.841Z,99610.13
2022-11-15T12:01:21.807Z,99604.59
2022-11-15T12:03:36.092Z,99595.28
2022-11-15T12:05:56.657Z,99589.97
2022-11-15T12:08:11.148Z,99597.22
2022-11-15T12:10:23.648Z,99589.00
2022-11-15T12:12:48.695Z,99591.31
2022-11-15T12:14:57.581Z,99584.91
2022-11-15T12:17:00.635Z,99583.75
2022-11-15T12:19:06.289Z,99583.75
2022-11-15T12:21:36.371Z,99587.34
2022-11-15T12:23:53.030Z,99581.63
2022-11-15T12:26:03.352Z,99583.06
2022-11-15T12:28:36.457Z,99588.59
2022-11-15T12:30:53.585Z,99576.28
2022-11-15T12:33:02.959Z,99570.84
2022-11-15T12:35:21.265Z,99578.91
2022-11-15T12:37:45.130Z,99571.06
2022-11-15T12:40:25.782Z,99573.84
2022-11-15T12:43:08.211Z,99576.69
2022-11-15T12:45:36.491Z,99577.84
2022-11-15T12:47:38.626Z,99573.00
2022-11-15T12:49:40.623Z,99568.63
2022-11-15T12:51:53.094Z,99564.69
2022-11-15T12:53:55.071Z,99557.41
2022-11-15T12:56:16.236Z,99564.31
2022-11-15T12:58:29.833Z,99567.00
2022-11-15T13:00:34.966Z,99562.47
2022-11-15T13:02:47.671Z,99570.06
2022-11-15T13:04:51.538Z,99567.16
2022-11-15T13:06:56.937Z,99564.75
2022-11-15T13:08:59.382Z,99560.06
2022-11-15T13:11:39.934Z,99564.34
2022-11-15T13:13:46.396Z,99556.78
2022-11-15T13:16:19.457Z,99556.31
2022-11-15T13:18:37.339Z,99555.34
2022-11-15T13:28:42.589Z,99546.16
2022-11-15T13:30:47.584Z,99542.25
2022-11-15T13:32:51.559Z,99542.06
2022-11-15T13:34:53.971Z,99535.97
2022-11-15T13:36:56.990Z,99540.72
2022-11-15T13:39:26.218Z,99527.53
2022-11-15T13:41:37.038Z,99530.34
2022-11-15T13:43:39.248Z,99530.03
2022-11-15T13:45:41.269Z,99528.22
2022-11-15T13:47:44.724Z,99534.81
2022-11-15T13:49:47.010Z,99539.81
2022-11-15T13:51:52.450Z,99537.31
2022-11-15T13:54:30.136Z,99544.88
2022-11-15T13:56:35.223Z,99534.50
2022-11-15T13:58:40.762Z,99535.66
2022-11-15T14:00:46.230Z,99544.88
2022-11-15T14:02:48.381Z,99542.25
2022-11-15T14:05:00.705Z,99544.38
2022-11-15T14:07:03.984Z,99538.19
2022-11-15T14:09:12.207Z,99531.19
2022-11-15T14:11:18.642Z,99534.88
2022-11-15T14:13:34.851Z,99535.34
2022-11-15T14:15:39.515Z,99534.19
2022-11-15T14:17:49.735Z,99525.38
2022-11-15T14:19:53.705Z,99528.28
2022-11-15T14:22:26.791Z,99517.41
2022-11-15T14:24:32.701Z,99523.81
2022-11-15T14:26:35.969Z,99517.69
2022-11-15T14:28:40.333Z,99516.03
2022-11-15T14:30:43.846Z,99503.47
2022-11-15T14:32:50.669Z,99506.56
2022-11-15T14:35:01.293Z,99512.13
2022-11-15T14:37:03.318Z,99504.00
2022-11-15T14:39:06.424Z,99494.34
2022-11-15T14:41:20.239Z,99501.88
2022-11-15T14:43:22.438Z,99505.44
2022-11-15T14:45:24.545Z,99500.03
2022-11-15T14:47:26.641Z,99508.44
2022-11-15T14:49:28.688Z,99503.34
2022-11-15T14:51:31.217Z,99503.31
2022-11-15T14:53:33.472Z,99502.56
2022-11-15T14:55:37.352Z,99499.00
2022-11-15T14:57:39.650Z,99497.25
2022-11-15T14:59:41.806Z,99492.13
2022-11-15T15:01:46.263Z,99490.47
2022-11-15T15:03:48.429Z,99491.78
2022-11-15T15:05:50.928Z,99475.63
2022-11-15T15:07:54.317Z,99479.38
2022-11-15T15:10:06.744Z,99473.97
2022-11-15T15:12:20.889Z,99465.84
2022-11-15T15:14:23.222Z,99460.44
2022-11-15T15:16:25.945Z,99467.88
2022-11-15T15:18:28.200Z,99471.72
2022-11-15T15:20:31.193Z,99473.56
2022-11-15T15:22:34.155Z,99475.47
2022-11-15T15:24:36.072Z,99470.06
2022-11-15T15:26:40.288Z,99469.19
2022-11-15T15:28:42.573Z,99469.31
2022-11-15T15:30:44.916Z,99462.03
2022-11-15T15:32:47.064Z,99466.00
2022-11-15T15:34:49.397Z,99462.31
2022-11-15T15:37:50.971Z,99456.66
2022-11-15T15:39:57.329Z,99451.16
2022-11-15T15:41:59.567Z,99459.06
2022-11-15T15:44:02.126Z,99456.38
2022-11-15T15:46:04.613Z,99454.63
2022-11-15T15:48:07.055Z,99444.88
2022-11-15T15:50:21.183Z,99449.59
2022-11-15T15:52:23.342Z,99452.13
2022-11-15T15:54:25.364Z,99443.22
2022-11-15T15:56:29.305Z,99438.84
2022-11-15T15:58:35.657Z,99445.25
2022-11-15T16:00:38.628Z,99448.88
2022-11-15T16:02:41.262Z,99445.41
2022-11-15T16:04:43.752Z,99441.94
2022-11-15T16:06:46.037Z,99444.63
2022-11-15T16:09:13.666Z,99450.03
2022-11-15T16:11:11.367Z,99449.16
2022-11-15T16:13:13.559Z,99442.00
2022-11-15T16:15:16.211Z,99439.31
2022-11-15T16:17:21.517Z,99436.97
2022-11-15T16:19:23.785Z,99433.97
2022-11-15T16:21:26.035Z,99431.25
2022-11-15T16:23:27.923Z,99431.97
2022-11-15T16:25:31.609Z,99431.09
2022-11-15T16:27:33.804Z,99436.53
2022-11-15T16:29:36.093Z,99441.22
2022-11-15T16:31:38.659Z,99438.78
2022-11-15T16:33:41.675Z,99436.16
2022-11-15T16:35:43.801Z,99444.47
2022-11-15T16:37:47.370Z,99451.16
2022-11-15T16:39:50.737Z,99446.13
2022-11-15T16:41:52.889Z,99437.84
2022-11-15T16:43:54.881Z,99431.56
2022-11-15T16:45:57.048Z,99425.09
2022-11-15T16:51:23.951Z,99437.28
2022-11-15T16:53:27.962Z,99431.22
2022-11-15T16:55:30.684Z,99434.97
2022-11-15T16:58:02.015Z,99430.06
2022-11-15T17:00:04.775Z,99430.69
2022-11-15T17:02:12.714Z,99428.22
2022-11-15T17:04:16.491Z,99433.50
2022-11-15T17:06:19.151Z,99428.06
2022-11-15T17:08:22.641Z,99422.75
2022-11-15T17:10:26.521Z,99431.84
2022-11-15T17:12:28.935Z,99425.53
2022-11-15T17:14:31.436Z,99422.13
2022-11-15T17:16:38.369Z,99416.91
2022-11-15T17:18:41.776Z,99411.50
2022-11-15T17:20:44.661Z,99416.66
2022-11-15T17:22:47.596Z,99416.81
2022-11-15T17:24:49.975Z,99403.47
2022-11-15T17:26:52.215Z,99402.41
2022-11-15T17:28:57.841Z,99402.00
2022-11-15T17:31:00.289Z,99393.81
2022-11-15T17:33:02.215Z,99376.59
2022-11-15T17:35:12.171Z,99377.56
2022-11-15T17:37:17.459Z,99383.25
2022-11-15T17:39:21.008Z,99381.59
2022-11-15T17:41:23.427Z,99379.06
2022-11-15T17:43:25.611Z,99376.38
2022-11-15T17:45:27.751Z,99380.97
2022-11-15T17:47:29.724Z,99375.66
2022-11-15T17:49:31.920Z,99371.25
2022-11-15T17:51:34.046Z,99364.97
2022-11-15T17:53:38.685Z,99367.75
2022-11-15T17:55:43.026Z,99376.91
2022-11-15T17:57:45.125Z,99372.41
2022-11-15T17:59:48.800Z,99368.13
2022-11-15T18:01:50.919Z,99369.84
2022-11-15T18:03:53.889Z,99368.13
2022-11-15T18:05:56.046Z,99368.91
2022-11-15T18:07:58.268Z,99365.53
2022-11-15T18:10:00.492Z,99351.22
2022-11-15T18:12:02.578Z,99352.94
2022-11-15T18:14:06.690Z,99352.53
2022-11-15T18:16:15.696Z,99353.63
2022-11-15T18:18:20.298Z,99347.03
2022-11-15T18:20:26.551Z,99351.47
2022-11-15T18:22:30.840Z,99352.88
2022-11-15T18:24:41.637Z,99345.53
2022-11-15T18:26:43.809Z,99343.00
2022-11-15T18:28:49.006Z,99335.94
2022-11-15T18:30:52.758Z,99336.75
2022-11-15T18:32:55.520Z,99329.59
2022-11-15T18:34:57.625Z,99340.41
2022-11-15T18:37:01.650Z,99340.50
2022-11-15T18:39:05.044Z,99342.41
2022-11-15T18:41:09.776Z,99335.16
2022-11-15T18:43:36.978Z,99332.88
2022-11-15T18:45:39.090Z,99335.34
2022-11-15T18:47:44.201Z,99336.19
2022-11-15T18:49:48.531Z,99337.00
2022-11-15T18:51:50.873Z,99332.56
2022-11-15T18:53:54.801Z,99336.19
2022-11-15T18:56:05.178Z,99332.03
2022-11-15T18:58:07.097Z,99331.78
2022-11-15T19:00:09.917Z,99326.38
2022-11-15T19:02:13.110Z,99317.41
2022-11-15T19:04:19.089Z,99326.44
2022-11-15T19:06:23.933Z,99321.03
2022-11-15T19:08:26.301Z,99312.94
2022-11-15T19:10:28.297Z,99312.06
2022-11-15T19:12:30.276Z,99313.91
2022-11-15T19:14:32.915Z,99311.47
2022-11-15T19:16:38.094Z,99309.53
2022-11-15T19:18:40.220Z,99317.66
2022-11-15T19:20:42.596Z,99323.22
2022-11-15T19:22:44.671Z,99315.13
2022-11-15T19:24:46.655Z,99314.16
2022-11-15T19:26:48.987Z,99320.41
2022-11-15T19:28:58.404Z,99322.44
2022-11-15T19:31:11.521Z,99310.84
2022-11-15T19:33:13.709Z,99318.63
2022-11-15T19:35:15.931Z,99311.38
2022-11-15T19:37:17.879Z,99312.25
2022-11-15T19:39:20.054Z,99301.44
2022-11-15T19:41:24.150Z,99304.31
2022-11-15T19:43:26.703Z,99298.81
2022-11-15T19:45:28.551Z,99289.84
2022-11-15T19:47:33.621Z,99292.66
2022-11-15T19:49:38.418Z,99295.50
2022-11-15T19:51:42.653Z,99298.31
2022-11-15T19:53:45.446Z,99304.66
2022-11-15T19:56:00.307Z,99305.88
2022-11-15T19:58:02.762Z,99296.66
2022-11-15T20:00:07.600Z,99301.94
2022-11-15T20:02:12.518Z,99296.72
2022-11-15T20:04:14.662Z,99299.25
2022-11-15T20:06:22.005Z,99295.78
2022-11-15T20:08:24.225Z,99297.50
2022-11-15T20:10:26.228Z,99299.53
2022-11-15T20:12:28.190Z,99294.88
2022-11-15T20:14:30.522Z,99284.97
2022-11-15T20:16:33.719Z,99289.47
2022-11-15T20:18:36.118Z,99294.75
2022-11-15T20:20:38.698Z,99283.16
2022-11-15T20:22:40.904Z,99285.91
2022-11-15T20:24:42.987Z,99273.38
2022-11-15T20:26:45.194Z,99277.91
2022-11-15T20:28:48.241Z,99265.53
2022-11-15T20:30:53.709Z,99253.75
2022-11-15T20:32:55.722Z,99241.47
2022-11-15T20:34:57.599Z,99246.03
2022-11-15T20:36:59.798Z,99247.75
2022-11-15T20:39:01.920Z,99248.09
2022-11-15T20:41:04.101Z,99242.72
2022-11-15T20:43:07.236Z,99247.25
2022-11-15T20:45:09.519Z,99259.16
2022-11-15T20:47:11.639Z,99257.94
2022-11-15T20:49:13.407Z,99253.31
2022-11-15T20:51:17.112Z,99247.31
2022-11-15T20:53:20.464Z,99245.34
2022-11-15T20:55:22.896Z,99254.03
2022-11-15T20:57:25.018Z,99244.44
2022-11-15T20:59:27.296Z,99238.88
2022-11-15T21:01:29.711Z,99245.16
2022-11-15T21:03:33.290Z,99245.94
2022-11-15T21:05:38.958Z,99246.28
2022-11-15T21:07:46.611Z,99247.00
2022-11-15T21:10:07.601Z,99243.38
2022-11-15T21:12:14.064Z,99238.16
2022-11-15T21:14:16.157Z,99234.44
2022-11-15T21:16:18.031Z,99234.53
2022-11-15T21:18:19.958Z,99232.69
2022-11-15T21:20:21.817Z,99234.53
2022-11-15T21:22:24.056Z,99230.19
2022-11-15T21:24:26.336Z,99227.38
2022-11-15T21:26:28.754Z,99225.72
2022-11-15T21:28:31.305Z,99227.47
2022-11-15T21:30:33.976Z,99226.59
2022-11-15T21:32:39.345Z,99223.00
2022-11-15T21:34:41.735Z,99218.66
2022-11-15T21:36:46.110Z,99210.50
2022-11-15T21:38:50.480Z,99218.41
2022-11-15T21:40:53.633Z,99208.91
2022-11-15T21:42:55.636Z,99207.69
2022-11-15T21:44:57.766Z,99204.22
2022-11-15T21:47:00.502Z,99202.38
2022-11-15T21:49:02.877Z,99195.16
2022-11-15T21:51:07.510Z,99190.63
2022-11-15T21:53:09.533Z,99195.16
2022-11-15T21:55:11.656Z,99193.31
2022-11-15T21:57:13.783Z,99196.03
2022-11-15T21:59:15.633Z,99189.75
2022-11-15T22:01:36.155Z,99183.38
2022-11-15T22:03:38.127Z,99186.09
2022-11-15T22:05:43.995Z,99188.88
2022-11-15T22:07:45.971Z,99184.44
2022-11-15T22:09:48.022Z,99183.56
2022-11-15T22:11:50.146Z,99178.09
2022-11-15T22:13:52.204Z,99177.56
2022-11-15T22:15:55.144Z,99177.38
2022-11-15T22:18:00.121Z,99182.94
2022-11-15T22:20:16.886Z,99167.81
2022-11-15T22:22:24.717Z,99163.69
2022-11-15T22:24:27.514Z,99167.44
2022-11-15T22:26:29.620Z,99167.97
2022-11-15T22:28:32.541Z,99164.25
2022-11-15T22:30:39.592Z,99154.22
2022-11-15T22:36:08.027Z,99151.88
2022-11-15T22:38:11.191Z,99147.50
2022-11-15T22:40:13.586Z,99145.78
2022-11-15T22:42:20.721Z,99150.63
2022-11-15T22:44:25.428Z,99141.34
2022-11-15T22:46:27.971Z,99138.53
2022-11-15T22:48:36.442Z,99131.25
2022-11-15T22:50:39.225Z,99126.88
2022-11-15T22:52:41.490Z,99124.13
2022-11-15T22:54:46.586Z,99118.53
2022-11-15T22:56:51.053Z,99116.09
2022-11-15T22:58:53.152Z,99121.22
2022-11-15T23:00:58.297Z,99118.88
2022-11-15T23:03:00.957Z,99108.97
2022-11-15T23:05:03.580Z,99105.53
2022-11-15T23:07:05.824Z,99103.91
2022-11-15T23:09:08.385Z,99113.81
2022-11-15T23:11:30.272Z,99098.94
2022-11-15T23:13:33.570Z,99099.28
2022-11-15T23:15:54.441Z,99099.03
2022-11-15T23:17:56.789Z,99099.97
2022-11-15T23:20:11.157Z,99092.78
2022-11-15T23:22:39.725Z,99093.22
2022-11-15T23:24:41.913Z,99095.81
2022-11-15T23:26:46.073Z,99095.63
2022-11-15T23:28:48.264Z,99080.31
2022-11-15T23:31:09.122Z,99090.16
2022-11-15T23:34:01.982Z,99084.06
2022-11-15T23:36:05.402Z,99092.25
2022-11-15T23:38:07.921Z,99085.53
2022-11-15T23:40:10.911Z,99088.13
2022-11-15T23:42:20.278Z,99082.47
2022-11-15T23:44:23.193Z,99083.34
2022-11-15T23:46:25.212Z,99080.47
2022-11-15T23:48:28.089Z,99072.38
2022-11-15T23:50:32.926Z,99074.91
2022-11-15T23:52:35.216Z,99078.47
2022-11-15T23:54:38.406Z,99076.56
2022-11-15T23:56:40.685Z,99065.06
2022-11-15T23:58:44.400Z,99070.19
